Station Historical Data
Daily Summary for December 1, 2017 Units:  Both    English   Metric
« Previous Day
Next Day »
Daily Weekly Monthly Yearly Custom
  High: Low: Average:
Temperature: 63.9 °F /  17.7 °C 49.2 °F /  9.6 °C 57.1 °F /  13.9 °C
Dew Point: 57.5 °F /  14.2 °C 47.3 °F /  8.5 °C 53.6 °F /  12 °C
Humidity: 94% 74% 88%
Wind Speed: 3.5mph /  5.6km/h - 0.3mph /  0.5km/h
Wind Gust: 3.5mph /  5.6km/h - -
Wind- - South
Pressure: 30.20 in /  1022.6 hPa 30.11 in /  1019.5 hPa -
Precipitation: 0.00 in /  0 mm    
Historical Graphs
 
 
Tabular Data for December 1, 2017
Time Temperature Dew Point Pressure Wind Wind Speed Wind Gust Humidity Rainfall Rate (Hourly) solar Conditions
00:00 59.4 °F /  15.2 °C 57.4 °F /  14.1 °C 30.13in /  1020.2hPa Calm     93% 0.00in /  0mm WeatherDisplay:10.37 W/m2 OVC
00:05 59.5 °F /  15.3 °C 57.4 °F /  14.1 °C 30.13in /  1020.2hPa Calm     93% 0.00in /  0mm WeatherDisplay:10.37 W/m2 OVC
00:10 59.5 °F /  15.3 °C 57.5 °F /  14.2 °C 30.13in /  1020.2hPa Calm     93% 0.00in /  0mm WeatherDisplay:10.37 W/m2 OVC
00:15 59.4 °F /  15.2 °C 57.4 °F /  14.1 °C 30.13in /  1020.2hPa Calm     93% 0.00in /  0mm WeatherDisplay:10.37 W/m2 OVC
00:20 59.4 °F /  15.2 °C 57.4 °F /  14.1 °C 30.13in /  1020.2hPa Calm     93% 0.00in /  0mm WeatherDisplay:10.37 W/m2 OVC
00:25 59.3 °F /  15.2 °C 57.3 °F /  14.1 °C 30.13in /  1020.2hPa Calm     93% 0.00in /  0mm WeatherDisplay:10.37 W/m2 OVC
00:30 59.3 °F /  15.2 °C 57.3 °F /  14.1 °C 30.13in /  1020.2hPa Calm     93% 0.00in /  0mm WeatherDisplay:10.37 W/m2 OVC
00:35 59.2 °F /  15.1 °C 57.2 °F /  14 °C 30.13in /  1020.2hPa Calm     93% 0.00in /  0mm WeatherDisplay:10.37 W/m2 OVC
00:45 59.1 °F /  15.1 °C 57.1 °F /  13.9 °C 30.12in /  1019.9hPa Calm     93% 0.00in /  0mm WeatherDisplay:10.37 W/m2 OVC
00:50 59.0 °F /  15 °C 57.0 °F /  13.9 °C 30.12in /  1019.9hPa Calm     93% 0.00in /  0mm WeatherDisplay:10.37 W/m2 OVC
00:56 59.0 °F /  15 °C 57.0 °F /  13.9 °C 30.12in /  1019.9hPa Calm     93% 0.00in /  0mm WeatherDisplay:10.37 W/m2 OVC
01:06 58.8 °F /  14.9 °C 56.8 °F /  13.8 °C 30.12in /  1019.9hPa Calm     93% 0.00in /  0mm WeatherDisplay:10.37 W/m2 OVC
01:16 58.8 °F /  14.9 °C 56.8 °F /  13.8 °C 30.12in /  1019.9hPa Calm     93% 0.00in /  0mm WeatherDisplay:10.37 W/m2 OVC
01:26 59.0 °F /  15 °C 57.3 °F /  14.1 °C 30.13in /  1020.2hPa Calm     94% 0.00in /  0mm WeatherDisplay:10.37 W/m2 OVC
01:31 59.0 °F /  15 °C 57.3 °F /  14.1 °C 30.13in /  1020.2hPa West 1.2mph /  1.9km/h 1.2mph /  1.9km/h 94% 0.00in /  0mm WeatherDisplay:10.37 W/m2 OVC
01:36 59.1 °F /  15.1 °C 57.4 °F /  14.1 °C 30.13in /  1020.2hPa West 1.2mph /  1.9km/h   94% 0.00in /  0mm WeatherDisplay:10.37 W/m2 OVC
01:41 59.0 °F /  15 °C 57.0 °F /  13.9 °C 30.13in /  1020.2hPa WNW 1.2mph /  1.9km/h   93% 0.00in /  0mm WeatherDisplay:10.37 W/m2 OVC
01:47 58.9 °F /  14.9 °C 56.9 °F /  13.8 °C 30.13in /  1020.2hPa SSW 2.3mph /  3.7km/h 2.3mph /  3.7km/h 93% 0.00in /  0mm WeatherDisplay:10.37 W/m2 OVC
01:50 58.9 °F /  14.9 °C 56.9 °F /  13.8 °C 30.13in /  1020.2hPa Calm   1.0mph /  1.6km/h 93% 0.00in /  0mm WeatherDisplay:10.37 W/m2 OVC
01:55 58.8 °F /  14.9 °C 56.8 °F /  13.8 °C 30.13in /  1020.2hPa Calm     93% 0.00in /  0mm WeatherDisplay:10.37 W/m2 OVC
02:00 58.7 °F /  14.8 °C 56.7 °F /  13.7 °C 30.13in /  1020.2hPa Calm     93% 0.00in /  0mm WeatherDisplay:10.37 W/m2 OVC
02:05 58.6 °F /  14.8 °C 56.6 °F /  13.7 °C 30.13in /  1020.2hPa Calm     93% 0.00in /  0mm WeatherDisplay:10.37 W/m2 OVC
02:10 58.4 °F /  14.7 °C 56.4 °F /  13.6 °C 30.13in /  1020.2hPa Calm     93% 0.00in /  0mm WeatherDisplay:10.37 W/m2 OVC
02:15 58.2 °F /  14.6 °C 56.2 °F /  13.4 °C 30.14in /  1020.5hPa Calm     93% 0.00in /  0mm WeatherDisplay:10.37 W/m2 OVC
02:20 58.0 °F /  14.4 °C 56.0 °F /  13.3 °C 30.13in /  1020.2hPa Calm     93% 0.00in /  0mm WeatherDisplay:10.37 W/m2 OVC
02:25 57.8 °F /  14.3 °C 55.8 °F /  13.2 °C 30.13in /  1020.2hPa Calm     93% 0.00in /  0mm WeatherDisplay:10.37 W/m2 OVC
02:30 57.7 °F /  14.3 °C 55.7 °F /  13.2 °C 30.13in /  1020.2hPa Calm     93% 0.00in /  0mm WeatherDisplay:10.37 W/m2 OVC
02:35 57.6 °F /  14.2 °C 55.6 °F /  13.1 °C 30.13in /  1020.2hPa Calm     93% 0.00in /  0mm WeatherDisplay:10.37 W/m2 OVC
02:46 57.6 °F /  14.2 °C 55.6 °F /  13.1 °C 30.13in /  1020.2hPa Calm     93% 0.00in /  0mm WeatherDisplay:10.37 W/m2 OVC
02:51 57.7 °F /  14.3 °C 55.7 °F /  13.2 °C 30.13in /  1020.2hPa Calm     93% 0.00in /  0mm WeatherDisplay:10.37 W/m2 SCT
02:56 57.8 °F /  14.3 °C 55.8 °F /  13.2 °C 30.13in /  1020.2hPa Calm     93% 0.00in /  0mm WeatherDisplay:10.37 W/m2 SCT
03:01 57.8 °F /  14.3 °C 55.8 °F /  13.2 °C 30.13in /  1020.2hPa Calm     93% 0.00in /  0mm WeatherDisplay:10.37 W/m2 SCT
03:06 57.8 °F /  14.3 °C 55.8 °F /  13.2 °C 30.13in /  1020.2hPa Calm     93% 0.00in /  0mm WeatherDisplay:10.37 W/m2 SCT
03:11 57.8 °F /  14.3 °C 55.8 °F /  13.2 °C 30.13in /  1020.2hPa Calm     93% 0.00in /  0mm WeatherDisplay:10.37 W/m2 SCT
03:16 57.8 °F /  14.3 °C 55.8 °F /  13.2 °C 30.13in /  1020.2hPa Calm     93% 0.00in /  0mm WeatherDisplay:10.37 W/m2 SCT
03:21 57.9 °F /  14.4 °C 55.9 °F /  13.3 °C 30.13in /  1020.2hPa Calm     93% 0.00in /  0mm WeatherDisplay:10.37 W/m2 SCT
03:27 57.8 °F /  14.3 °C 55.8 °F /  13.2 °C 30.13in /  1020.2hPa Calm     93% 0.00in /  0mm WeatherDisplay:10.37 W/m2 SCT
03:32 57.8 °F /  14.3 °C 55.8 °F /  13.2 °C 30.13in /  1020.2hPa Calm     93% 0.00in /  0mm WeatherDisplay:10.37 W/m2 SCT
03:37 57.7 °F /  14.3 °C 55.7 °F /  13.2 °C 30.13in /  1020.2hPa Calm     93% 0.00in /  0mm WeatherDisplay:10.37 W/m2 SCT
03:42 57.5 °F /  14.2 °C 55.5 °F /  13.1 °C 30.12in /  1019.9hPa Calm     93% 0.00in /  0mm WeatherDisplay:10.37 W/m2 SCT
03:47 57.3 °F /  14.1 °C 55.3 °F /  12.9 °C 30.12in /  1019.9hPa Calm     93% 0.00in /  0mm WeatherDisplay:10.37 W/m2 SCT
03:52 57.1 °F /  13.9 °C 55.1 °F /  12.8 °C 30.12in /  1019.9hPa Calm     93% 0.00in /  0mm WeatherDisplay:10.37 W/m2 OVC
03:57 56.9 °F /  13.8 °C 54.9 °F /  12.7 °C 30.12in /  1019.9hPa Calm     93% 0.00in /  0mm WeatherDisplay:10.37 W/m2 OVC
04:08 56.6 °F /  13.7 °C 54.6 °F /  12.6 °C 30.12in /  1019.9hPa Calm     93% 0.00in /  0mm WeatherDisplay:10.37 W/m2 OVC
04:13 56.5 °F /  13.6 °C 54.5 °F /  12.5 °C 30.12in /  1019.9hPa Calm     93% 0.00in /  0mm WeatherDisplay:10.37 W/m2 OVC
04:18 56.3 °F /  13.5 °C 54.3 °F /  12.4 °C 30.12in /  1019.9hPa Calm     93% 0.00in /  0mm WeatherDisplay:10.37 W/m2 OVC
04:19 56.2 °F /  13.4 °C 54.2 °F /  12.3 °C 30.12in /  1019.9hPa Calm     93% 0.00in /  0mm WeatherDisplay:10.37 W/m2
04:22 56.2 °F /  13.4 °C 54.2 °F /  12.3 °C 30.12in /  1019.9hPa Calm     93% 0.00in /  0mm WeatherDisplay:10.37 W/m2 FEW
04:24 56.2 °F /  13.4 °C 54.2 °F /  12.3 °C 30.12in /  1019.9hPa Calm     93% 0.00in /  0mm WeatherDisplay:10.37 W/m2
04:27 56.1 °F /  13.4 °C 54.1 °F /  12.3 °C 30.12in /  1019.9hPa Calm     93% 0.00in /  0mm WeatherDisplay:10.37 W/m2 FEW
04:29 56.1 °F /  13.4 °C 54.1 °F /  12.3 °C 30.12in /  1019.9hPa Calm     93% 0.00in /  0mm WeatherDisplay:10.37 W/m2
04:33 56.0 °F /  13.3 °C 54.0 °F /  12.2 °C 30.12in /  1019.9hPa Calm     93% 0.00in /  0mm WeatherDisplay:10.37 W/m2 CLR
04:34 56.1 °F /  13.4 °C 54.1 °F /  12.3 °C 30.12in /  1019.9hPa Calm     93% 0.00in /  0mm WeatherDisplay:10.37 W/m2
04:38 56.0 °F /  13.3 °C 54.0 °F /  12.2 °C 30.12in /  1019.9hPa Calm     93% 0.00in /  0mm WeatherDisplay:10.37 W/m2 CLR
04:39 56.0 °F /  13.3 °C 54.0 °F /  12.2 °C 30.12in /  1019.9hPa Calm     93% 0.00in /  0mm WeatherDisplay:10.37 W/m2
04:43 55.9 °F /  13.3 °C 53.9 °F /  12.2 °C 30.12in /  1019.9hPa Calm     93% 0.00in /  0mm WeatherDisplay:10.37 W/m2 CLR
04:44 55.8 °F /  13.2 °C 53.8 °F /  12.1 °C 30.12in /  1019.9hPa Calm     93% 0.00in /  0mm WeatherDisplay:10.37 W/m2
04:49 55.6 °F /  13.1 °C 53.6 °F /  12 °C 30.12in /  1019.9hPa Calm     93% 0.00in /  0mm WeatherDisplay:10.37 W/m2
04:53 55.6 °F /  13.1 °C 53.6 °F /  12 °C 30.12in /  1019.9hPa Calm     93% 0.00in /  0mm WeatherDisplay:10.37 W/m2 CLR
04:54 55.5 °F /  13.1 °C 53.5 °F /  11.9 °C 30.12in /  1019.9hPa Calm     93% 0.00in /  0mm WeatherDisplay:10.37 W/m2
04:58 55.3 °F /  12.9 °C 53.3 °F /  11.8 °C 30.12in /  1019.9hPa Calm     93% 0.00in /  0mm WeatherDisplay:10.37 W/m2 CLR
04:59 55.3 °F /  12.9 °C 53.3 °F /  11.8 °C 30.12in /  1019.9hPa Calm     93% 0.00in /  0mm WeatherDisplay:10.37 W/m2
05:03 55.1 °F /  12.8 °C 53.1 °F /  11.7 °C 30.12in /  1019.9hPa Calm     93% 0.00in /  0mm WeatherDisplay:10.37 W/m2 CLR
05:08 55.1 °F /  12.8 °C 53.1 °F /  11.7 °C 30.12in /  1019.9hPa Calm     93% 0.00in /  0mm WeatherDisplay:10.37 W/m2 CLR
05:09 55.1 °F /  12.8 °C 53.1 °F /  11.7 °C 30.11in /  1019.5hPa Calm     93% 0.00in /  0mm WeatherDisplay:10.37 W/m2
05:13 55.0 °F /  12.8 °C 53.0 °F /  11.7 °C 30.11in /  1019.5hPa Calm     93% 0.00in /  0mm WeatherDisplay:10.37 W/m2 CLR
05:14 54.9 °F /  12.7 °C 52.9 °F /  11.6 °C 30.11in /  1019.5hPa Calm     93% 0.00in /  0mm WeatherDisplay:10.37 W/m2
05:18 55.0 °F /  12.8 °C 53.3 °F /  11.8 °C 30.12in /  1019.9hPa Calm     94% 0.00in /  0mm WeatherDisplay:10.37 W/m2 CLR
05:19 54.9 °F /  12.7 °C 52.9 °F /  11.6 °C 30.12in /  1019.9hPa Calm     93% 0.00in /  0mm WeatherDisplay:10.37 W/m2
05:24 54.9 °F /  12.7 °C 53.2 °F /  11.8 °C 30.12in /  1019.9hPa Calm     94% 0.00in /  0mm WeatherDisplay:10.37 W/m2
05:29 54.8 °F /  12.7 °C 53.1 °F /  11.7 °C 30.12in /  1019.9hPa Calm     94% 0.00in /  0mm WeatherDisplay:10.37 W/m2 CLR
05:34 54.8 °F /  12.7 °C 53.1 °F /  11.7 °C 30.12in /  1019.9hPa Calm     94% 0.00in /  0mm WeatherDisplay:10.37 W/m2
05:39 54.7 °F /  12.6 °C 53.0 °F /  11.7 °C 30.12in /  1019.9hPa Calm     94% 0.00in /  0mm WeatherDisplay:10.37 W/m2 CLR
05:44 54.4 °F /  12.4 °C 52.4 °F /  11.3 °C 30.12in /  1019.9hPa Calm     93% 0.00in /  0mm WeatherDisplay:10.37 W/m2 CLR
05:49 54.1 °F /  12.3 °C 52.1 °F /  11.2 °C 30.12in /  1019.9hPa Calm     93% 0.00in /  0mm WeatherDisplay:10.37 W/m2 CLR
05:54 53.9 °F /  12.2 °C 51.9 °F /  11.1 °C 30.12in /  1019.9hPa Calm     93% 0.00in /  0mm WeatherDisplay:10.37 W/m2 FEW
05:59 54.0 °F /  12.2 °C 52.3 °F /  11.3 °C 30.12in /  1019.9hPa Calm     94% 0.00in /  0mm WeatherDisplay:10.37 W/m2 FEW
06:04 54.1 °F /  12.3 °C 52.4 °F /  11.3 °C 30.13in /  1020.2hPa Calm     94% 0.00in /  0mm WeatherDisplay:10.37 W/m2 SCT
06:09 54.2 °F /  12.3 °C 52.5 °F /  11.4 °C 30.13in /  1020.2hPa Calm     94% 0.00in /  0mm WeatherDisplay:10.37 W/m2 SCT
06:14 54.5 °F /  12.5 °C 52.8 °F /  11.6 °C 30.13in /  1020.2hPa Calm     94% 0.00in /  0mm WeatherDisplay:10.37 W/m2 BKN
06:19 54.8 °F /  12.7 °C 53.1 °F /  11.7 °C 30.13in /  1020.2hPa SSW 1.2mph /  1.9km/h   94% 0.00in /  0mm WeatherDisplay:10.37 W/m2 BKN
06:34 55.2 °F /  12.9 °C 53.5 °F /  11.9 °C 30.13in /  1020.2hPa Calm   1.0mph /  1.6km/h 94% 0.00in /  0mm WeatherDisplay:10.37 W/m2
06:35 55.2 °F /  12.9 °C 53.5 °F /  11.9 °C 30.13in /  1020.2hPa WNW 1.2mph /  1.9km/h   94% 0.00in /  0mm WeatherDisplay:10.37 W/m2 OVC
06:39 55.2 °F /  12.9 °C 53.5 °F /  11.9 °C 30.14in /  1020.5hPa Calm     94% 0.00in /  0mm WeatherDisplay:10.37 W/m2
06:40 55.2 °F /  12.9 °C 53.5 °F /  11.9 °C 30.14in /  1020.5hPa Calm     94% 0.00in /  0mm WeatherDisplay:10.37 W/m2 OVC
06:42 55.2 °F /  12.9 °C 53.5 °F /  11.9 °C 30.14in /  1020.5hPa WSW 1.2mph /  1.9km/h   94% 0.00in /  0mm WeatherDisplay:10.37 W/m2 OVC
06:44 55.3 °F /  12.9 °C 53.6 °F /  12 °C 30.14in /  1020.5hPa Calm     94% 0.00in /  0mm WeatherDisplay:10.37 W/m2
06:47 55.3 °F /  12.9 °C 53.6 °F /  12 °C 30.14in /  1020.5hPa Calm     94% 0.00in /  0mm WeatherDisplay:10.37 W/m2 OVC
06:49 55.3 °F /  12.9 °C 53.6 °F /  12 °C 30.14in /  1020.5hPa Calm     94% 0.00in /  0mm WeatherDisplay:10.37 W/m2
06:52 55.3 °F /  12.9 °C 53.6 °F /  12 °C 30.15in /  1020.9hPa Calm     94% 0.00in /  0mm WeatherDisplay:10.37 W/m2 OVC
06:57 55.4 °F /  13 °C 53.7 °F /  12.1 °C 30.15in /  1020.9hPa West 1.2mph /  1.9km/h   94% 0.00in /  0mm WeatherDisplay:10.37 W/m2 OVC
06:59 55.4 °F /  13 °C 53.7 °F /  12.1 °C 30.15in /  1020.9hPa Calm   1.0mph /  1.6km/h 94% 0.00in /  0mm WeatherDisplay:10.37 W/m2
07:02 55.4 °F /  13 °C 53.7 °F /  12.1 °C 30.15in /  1020.9hPa West 1.2mph /  1.9km/h   94% 0.00in /  0mm WeatherDisplay:10.37 W/m2 OVC
07:04 55.4 °F /  13 °C 53.7 °F /  12.1 °C 30.15in /  1020.9hPa Calm     94% 0.00in /  0mm WeatherDisplay:10.37 W/m2
07:07 55.4 °F /  13 °C 53.7 °F /  12.1 °C 30.15in /  1020.9hPa West 1.2mph /  1.9km/h 1.2mph /  1.9km/h 94% 0.00in /  0mm WeatherDisplay:10.37 W/m2 OVC
07:09 55.4 °F /  13 °C 53.7 °F /  12.1 °C 30.15in /  1020.9hPa Calm   1.0mph /  1.6km/h 94% 0.00in /  0mm WeatherDisplay:10.37 W/m2
07:12 55.4 °F /  13 °C 53.7 °F /  12.1 °C 30.15in /  1020.9hPa SE 1.2mph /  1.9km/h   94% 0.00in /  0mm WeatherDisplay:10.37 W/m2 OVC
07:14 55.4 °F /  13 °C 53.7 °F /  12.1 °C 30.15in /  1020.9hPa Calm     94% 0.00in /  0mm WeatherDisplay:10.37 W/m2
07:19 55.4 °F /  13 °C 53.7 °F /  12.1 °C 30.16in /  1021.2hPa Calm     94% 0.00in /  0mm WeatherDisplay:10.37 W/m2
07:22 55.4 °F /  13 °C 53.7 °F /  12.1 °C 30.16in /  1021.2hPa Calm     94% 0.00in /  0mm WeatherDisplay:10.37 W/m2 OVC
07:24 55.4 °F /  13 °C 53.7 °F /  12.1 °C 30.16in /  1021.2hPa Calm     94% 0.00in /  0mm WeatherDisplay:10.37 W/m2
07:28 55.4 °F /  13 °C 53.7 °F /  12.1 °C 30.16in /  1021.2hPa Calm     94% 0.00in /  0mm WeatherDisplay:10.37 W/m2 OVC
07:29 55.4 °F /  13 °C 53.7 °F /  12.1 °C 30.16in /  1021.2hPa Calm     94% 0.00in /  0mm WeatherDisplay:10.37 W/m2
07:33 55.4 °F /  13 °C 53.7 °F /  12.1 °C 30.16in /  1021.2hPa Calm     94% 0.00in /  0mm WeatherDisplay:10.37 W/m2 OVC
07:34 55.4 °F /  13 °C 53.7 °F /  12.1 °C 30.16in /  1021.2hPa Calm     94% 0.00in /  0mm WeatherDisplay:10.37 W/m2
07:38 55.4 °F /  13 °C 53.7 °F /  12.1 °C 30.16in /  1021.2hPa Calm     94% 0.00in /  0mm WeatherDisplay:10.37 W/m2 OVC
07:39 55.4 °F /  13 °C 53.7 °F /  12.1 °C 30.16in /  1021.2hPa Calm     94% 0.00in /  0mm WeatherDisplay:10.37 W/m2
07:44 55.4 °F /  13 °C 53.7 °F /  12.1 °C 30.16in /  1021.2hPa Calm     94% 0.00in /  0mm WeatherDisplay:10.37 W/m2
07:49 55.4 °F /  13 °C 53.7 °F /  12.1 °C 30.16in /  1021.2hPa Calm     94% 0.00in /  0mm WeatherDisplay:10.37 W/m2
07:53 55.4 °F /  13 °C 53.7 °F /  12.1 °C 30.16in /  1021.2hPa Calm     94% 0.00in /  0mm WeatherDisplay:10.37 W/m2 OVC
07:54 55.4 °F /  13 °C 53.7 °F /  12.1 °C 30.17in /  1021.6hPa Calm     94% 0.00in /  0mm WeatherDisplay:10.37 W/m2
07:58 55.4 °F /  13 °C 53.7 °F /  12.1 °C 30.17in /  1021.6hPa Calm     94% 0.00in /  0mm WeatherDisplay:10.37 W/m2 OVC
07:59 55.5 °F /  13.1 °C 53.8 °F /  12.1 °C 30.17in /  1021.6hPa Calm     94% 0.00in /  0mm WeatherDisplay:10.37 W/m2
08:03 55.4 °F /  13 °C 53.7 °F /  12.1 °C 30.17in /  1021.6hPa Calm     94% 0.00in /  0mm WeatherDisplay:10.37 W/m2 OVC
08:04 55.4 °F /  13 °C 53.7 °F /  12.1 °C 30.17in /  1021.6hPa Calm     94% 0.00in /  0mm WeatherDisplay:10.37 W/m2
08:08 55.4 °F /  13 °C 53.7 °F /  12.1 °C 30.17in /  1021.6hPa Calm     94% 0.00in /  0mm WeatherDisplay:10.37 W/m2 OVC
08:09 55.5 °F /  13.1 °C 53.8 °F /  12.1 °C 30.17in /  1021.6hPa Calm     94% 0.00in /  0mm WeatherDisplay:10.37 W/m2
08:14 55.5 °F /  13.1 °C 53.8 °F /  12.1 °C 30.17in /  1021.6hPa Calm   1.0mph /  1.6km/h 94% 0.00in /  0mm WeatherDisplay:10.37 W/m2
08:18 55.5 °F /  13.1 °C 53.8 °F /  12.1 °C 30.17in /  1021.6hPa ESE 1.2mph /  1.9km/h   94% 0.00in /  0mm WeatherDisplay:10.37 W/m2 OVC
08:19 55.6 °F /  13.1 °C 53.9 °F /  12.2 °C 30.17in /  1021.6hPa Calm     94% 0.00in /  0mm WeatherDisplay:10.37 W/m2
08:23 55.6 °F /  13.1 °C 53.9 °F /  12.2 °C 30.17in /  1021.6hPa Calm     94% 0.00in /  0mm WeatherDisplay:10.37 W/m2 OVC
08:24 55.6 °F /  13.1 °C 53.9 °F /  12.2 °C 30.17in /  1021.6hPa Calm     94% 0.00in /  0mm WeatherDisplay:10.37 W/m2
08:29 55.7 °F /  13.2 °C 54.0 °F /  12.2 °C 30.18in /  1021.9hPa Calm     94% 0.00in /  0mm WeatherDisplay:10.37 W/m2 OVC
08:34 55.7 °F /  13.2 °C 54.0 °F /  12.2 °C 30.18in /  1021.9hPa Calm   1.0mph /  1.6km/h 94% 0.00in /  0mm WeatherDisplay:10.37 W/m2
08:39 55.8 °F /  13.2 °C 54.1 °F /  12.3 °C 30.18in /  1021.9hPa Calm     94% 0.00in /  0mm WeatherDisplay:10.37 W/m2
08:44 55.9 °F /  13.3 °C 54.2 °F /  12.3 °C 30.18in /  1021.9hPa SSE 1.2mph /  1.9km/h   94% 0.00in /  0mm WeatherDisplay:10.37 W/m2 OVC
08:49 56.0 °F /  13.3 °C 54.3 °F /  12.4 °C 30.18in /  1021.9hPa Calm     94% 0.00in /  0mm WeatherDisplay:10.37 W/m2 OVC
08:54 56.1 °F /  13.4 °C 54.4 °F /  12.4 °C 30.18in /  1021.9hPa Calm     94% 0.00in /  0mm WeatherDisplay:10.37 W/m2 OVC
08:59 56.1 °F /  13.4 °C 54.4 °F /  12.4 °C 30.18in /  1021.9hPa Calm     94% 0.00in /  0mm WeatherDisplay:10.37 W/m2 OVC
09:04 56.2 °F /  13.4 °C 54.5 °F /  12.5 °C 30.18in /  1021.9hPa Calm     94% 0.00in /  0mm WeatherDisplay:10.37 W/m2
09:09 56.2 °F /  13.4 °C 54.2 °F /  12.3 °C 30.18in /  1021.9hPa Calm     93% 0.00in /  0mm WeatherDisplay:10.37 W/m2 OVC
09:14 56.2 °F /  13.4 °C 54.2 °F /  12.3 °C 30.18in /  1021.9hPa Calm     93% 0.00in /  0mm WeatherDisplay:10.37 W/m2 OVC
09:19 56.3 °F /  13.5 °C 54.3 °F /  12.4 °C 30.18in /  1021.9hPa Calm     93% 0.00in /  0mm WeatherDisplay:10.37 W/m2 OVC
09:29 56.4 °F /  13.6 °C 54.4 °F /  12.4 °C 30.18in /  1021.9hPa Calm     93% 0.00in /  0mm WeatherDisplay:10.37 W/m2
09:30 56.4 °F /  13.6 °C 54.4 °F /  12.4 °C 30.18in /  1021.9hPa Calm     93% 0.00in /  0mm WeatherDisplay:10.37 W/m2 OVC
09:34 56.4 °F /  13.6 °C 54.4 °F /  12.4 °C 30.18in /  1021.9hPa Calm     93% 0.00in /  0mm WeatherDisplay:10.37 W/m2
09:35 56.5 °F /  13.6 °C 54.5 °F /  12.5 °C 30.18in /  1021.9hPa Calm     93% 0.00in /  0mm WeatherDisplay:10.37 W/m2 OVC
09:39 56.5 °F /  13.6 °C 54.5 °F /  12.5 °C 30.18in /  1021.9hPa Calm   1.0mph /  1.6km/h 93% 0.00in /  0mm WeatherDisplay:10.37 W/m2
09:40 56.5 °F /  13.6 °C 54.5 °F /  12.5 °C 30.18in /  1021.9hPa Calm   1.0mph /  1.6km/h 93% 0.00in /  0mm WeatherDisplay:10.37 W/m2 OVC
09:44 56.5 °F /  13.6 °C 54.2 °F /  12.3 °C 30.18in /  1021.9hPa Calm   1.0mph /  1.6km/h 92% 0.00in /  0mm WeatherDisplay:10.37 W/m2
09:45 56.5 °F /  13.6 °C 54.2 °F /  12.3 °C 30.18in /  1021.9hPa WSW 1.2mph /  1.9km/h   92% 0.00in /  0mm WeatherDisplay:10.37 W/m2 OVC
09:49 56.5 °F /  13.6 °C 54.2 °F /  12.3 °C 30.18in /  1021.9hPa Calm     92% 0.00in /  0mm WeatherDisplay:10.37 W/m2
09:54 56.7 °F /  13.7 °C 54.4 °F /  12.4 °C 30.19in /  1022.2hPa Calm     92% 0.00in /  0mm WeatherDisplay:10.37 W/m2
09:55 56.7 °F /  13.7 °C 54.4 °F /  12.4 °C 30.19in /  1022.2hPa Calm     92% 0.00in /  0mm WeatherDisplay:10.37 W/m2 OVC
09:59 56.8 °F /  13.8 °C 54.2 °F /  12.3 °C 30.19in /  1022.2hPa Calm     91% 0.00in /  0mm WeatherDisplay:10.37 W/m2
10:00 56.8 °F /  13.8 °C 54.2 °F /  12.3 °C 30.19in /  1022.2hPa Calm     91% 0.00in /  0mm WeatherDisplay:10.37 W/m2 OVC
10:04 56.9 °F /  13.8 °C 54.3 °F /  12.4 °C 30.19in /  1022.2hPa Calm     91% 0.00in /  0mm WeatherDisplay:10.37 W/m2
10:05 56.9 °F /  13.8 °C 54.3 °F /  12.4 °C 30.19in /  1022.2hPa Calm     91% 0.00in /  0mm WeatherDisplay:10.37 W/m2 OVC
10:09 57.1 °F /  13.9 °C 54.5 °F /  12.5 °C 30.19in /  1022.2hPa Calm     91% 0.00in /  0mm WeatherDisplay:10.37 W/m2
10:10 57.1 °F /  13.9 °C 54.5 °F /  12.5 °C 30.19in /  1022.2hPa Calm     91% 0.00in /  0mm WeatherDisplay:10.37 W/m2 OVC
10:14 57.2 °F /  14 °C 54.6 °F /  12.6 °C 30.19in /  1022.2hPa Calm     91% 0.00in /  0mm WeatherDisplay:10.37 W/m2
10:19 57.3 °F /  14.1 °C 54.7 °F /  12.6 °C 30.19in /  1022.2hPa Calm     91% 0.00in /  0mm WeatherDisplay:10.37 W/m2
10:20 57.3 °F /  14.1 °C 54.4 °F /  12.4 °C 30.19in /  1022.2hPa Calm     90% 0.00in /  0mm WeatherDisplay:10.37 W/m2 OVC
10:24 57.3 °F /  14.1 °C 54.4 °F /  12.4 °C 30.20in /  1022.6hPa Calm     90% 0.00in /  0mm WeatherDisplay:10.37 W/m2
10:29 57.4 °F /  14.1 °C 54.5 °F /  12.5 °C 30.19in /  1022.2hPa Calm     90% 0.00in /  0mm WeatherDisplay:10.37 W/m2
10:31 57.4 °F /  14.1 °C 54.5 °F /  12.5 °C 30.20in /  1022.6hPa Calm     90% 0.00in /  0mm WeatherDisplay:10.37 W/m2 OVC
10:34 57.5 °F /  14.2 °C 54.6 °F /  12.6 °C 30.20in /  1022.6hPa Calm     90% 0.00in /  0mm WeatherDisplay:10.37 W/m2
10:36 57.5 °F /  14.2 °C 54.6 °F /  12.6 °C 30.20in /  1022.6hPa Calm     90% 0.00in /  0mm WeatherDisplay:10.37 W/m2 OVC
10:39 57.6 °F /  14.2 °C 54.7 °F /  12.6 °C 30.19in /  1022.2hPa Calm     90% 0.00in /  0mm WeatherDisplay:10.37 W/m2
10:41 57.7 °F /  14.3 °C 54.8 °F /  12.7 °C 30.20in /  1022.6hPa Calm     90% 0.00in /  0mm WeatherDisplay:10.37 W/m2 OVC
10:44 57.8 °F /  14.3 °C 54.6 °F /  12.6 °C 30.19in /  1022.2hPa Calm     89% 0.00in /  0mm WeatherDisplay:10.37 W/m2
10:49 57.9 °F /  14.4 °C 54.7 °F /  12.6 °C 30.19in /  1022.2hPa Calm   1.0mph /  1.6km/h 89% 0.00in /  0mm WeatherDisplay:10.37 W/m2
10:51 57.9 °F /  14.4 °C 54.7 °F /  12.6 °C 30.19in /  1022.2hPa East 1.2mph /  1.9km/h 1.2mph /  1.9km/h 89% 0.00in /  0mm WeatherDisplay:10.37 W/m2 OVC
10:54 58.0 °F /  14.4 °C 54.8 °F /  12.7 °C 30.19in /  1022.2hPa Calm   1.0mph /  1.6km/h 89% 0.00in /  0mm WeatherDisplay:10.37 W/m2
10:59 58.1 °F /  14.5 °C 54.9 °F /  12.7 °C 30.19in /  1022.2hPa Calm   1.0mph /  1.6km/h 89% 0.00in /  0mm WeatherDisplay:10.37 W/m2
11:01 58.1 °F /  14.5 °C 54.9 °F /  12.7 °C 30.19in /  1022.2hPa ESE 1.2mph /  1.9km/h   89% 0.00in /  0mm WeatherDisplay:10.37 W/m2 OVC
11:04 58.2 °F /  14.6 °C 55.0 °F /  12.8 °C 30.19in /  1022.2hPa Calm   1.0mph /  1.6km/h 89% 0.00in /  0mm WeatherDisplay:10.37 W/m2
11:06 58.2 °F /  14.6 °C 55.0 °F /  12.8 °C 30.19in /  1022.2hPa SE 1.2mph /  1.9km/h   89% 0.00in /  0mm WeatherDisplay:10.37 W/m2 OVC
11:09 58.3 °F /  14.6 °C 55.1 °F /  12.8 °C 30.19in /  1022.2hPa Calm   1.0mph /  1.6km/h 89% 0.00in /  0mm WeatherDisplay:10.37 W/m2
11:11 58.3 °F /  14.6 °C 54.8 °F /  12.7 °C 30.19in /  1022.2hPa WSW 1.2mph /  1.9km/h   88% 0.00in /  0mm WeatherDisplay:10.37 W/m2 OVC
11:14 58.2 °F /  14.6 °C 55.0 °F /  12.8 °C 30.19in /  1022.2hPa Calm   1.0mph /  1.6km/h 89% 0.00in /  0mm WeatherDisplay:10.37 W/m2
11:16 58.3 °F /  14.6 °C 55.1 °F /  12.8 °C 30.19in /  1022.2hPa NW 1.2mph /  1.9km/h 1.2mph /  1.9km/h 89% 0.00in /  0mm WeatherDisplay:10.37 W/m2 OVC
11:19 58.3 °F /  14.6 °C 55.1 °F /  12.8 °C 30.19in /  1022.2hPa Calm   2.0mph /  3.2km/h 89% 0.00in /  0mm WeatherDisplay:10.37 W/m2
11:21 58.3 °F /  14.6 °C 55.1 °F /  12.8 °C 30.19in /  1022.2hPa WNW 2.3mph /  3.7km/h   89% 0.00in /  0mm WeatherDisplay:10.37 W/m2 OVC
11:24 58.3 °F /  14.6 °C 55.1 °F /  12.8 °C 30.19in /  1022.2hPa Calm   1.0mph /  1.6km/h 89% 0.00in /  0mm WeatherDisplay:10.37 W/m2
11:26 58.3 °F /  14.6 °C 54.8 °F /  12.7 °C 30.19in /  1022.2hPa NW 2.3mph /  3.7km/h   88% 0.00in /  0mm WeatherDisplay:10.37 W/m2 OVC
11:29 58.2 °F /  14.6 °C 54.7 °F /  12.6 °C 30.18in /  1021.9hPa Calm     88% 0.00in /  0mm WeatherDisplay:10.37 W/m2
11:31 58.2 °F /  14.6 °C 54.7 °F /  12.6 °C 30.18in /  1021.9hPa NNW 1.2mph /  1.9km/h 1.2mph /  1.9km/h 88% 0.00in /  0mm WeatherDisplay:10.37 W/m2 OVC
11:34 58.2 °F /  14.6 °C 54.7 °F /  12.6 °C 30.18in /  1021.9hPa SW 1.0mph /  1.6km/h 2.0mph /  3.2km/h 88% 0.00in /  0mm WeatherDisplay:10.37 W/m2
11:39 58.3 °F /  14.6 °C 54.8 °F /  12.7 °C 30.18in /  1021.9hPa Calm     88% 0.00in /  0mm WeatherDisplay:10.37 W/m2
11:42 58.3 °F /  14.6 °C 54.8 °F /  12.7 °C 30.18in /  1021.9hPa South 2.3mph /  3.7km/h 2.3mph /  3.7km/h 88% 0.00in /  0mm WeatherDisplay:10.37 W/m2 OVC
11:44 58.3 °F /  14.6 °C 54.8 °F /  12.7 °C 30.18in /  1021.9hPa Calm   1.0mph /  1.6km/h 88% 0.00in /  0mm WeatherDisplay:10.37 W/m2
11:47 58.4 °F /  14.7 °C 54.9 °F /  12.7 °C 30.18in /  1021.9hPa SSE 1.2mph /  1.9km/h   88% 0.00in /  0mm WeatherDisplay:10.37 W/m2 OVC
11:49 58.4 °F /  14.7 °C 54.9 °F /  12.7 °C 30.18in /  1021.9hPa Calm   2.0mph /  3.2km/h 88% 0.00in /  0mm WeatherDisplay:10.37 W/m2
11:52 58.4 °F /  14.7 °C 54.9 °F /  12.7 °C 30.18in /  1021.9hPa South 2.3mph /  3.7km/h   88% 0.00in /  0mm WeatherDisplay:10.37 W/m2 OVC
11:54 58.4 °F /  14.7 °C 54.9 °F /  12.7 °C 30.18in /  1021.9hPa Calm     88% 0.00in /  0mm WeatherDisplay:10.37 W/m2
11:57 58.4 °F /  14.7 °C 54.9 °F /  12.7 °C 30.18in /  1021.9hPa SSW 2.3mph /  3.7km/h   88% 0.00in /  0mm WeatherDisplay:10.37 W/m2 OVC
11:59 58.5 °F /  14.7 °C 55.0 °F /  12.8 °C 30.18in /  1021.9hPa Calm   1.0mph /  1.6km/h 88% 0.00in /  0mm WeatherDisplay:10.37 W/m2
12:02 58.5 °F /  14.7 °C 55.0 °F /  12.8 °C 30.17in /  1021.6hPa SSE 1.2mph /  1.9km/h   88% 0.00in /  0mm WeatherDisplay:10.37 W/m2 OVC
12:04 58.6 °F /  14.8 °C 55.1 °F /  12.8 °C 30.18in /  1021.9hPa Calm   1.0mph /  1.6km/h 88% 0.00in /  0mm WeatherDisplay:10.37 W/m2
12:07 58.6 °F /  14.8 °C 55.1 °F /  12.8 °C 30.18in /  1021.9hPa SSE 1.2mph /  1.9km/h   88% 0.00in /  0mm WeatherDisplay:10.37 W/m2 OVC
12:09 58.7 °F /  14.8 °C 55.2 °F /  12.9 °C 30.17in /  1021.6hPa Calm   1.0mph /  1.6km/h 88% 0.00in /  0mm WeatherDisplay:10.37 W/m2
12:12 58.8 °F /  14.9 °C 55.3 °F /  12.9 °C 30.17in /  1021.6hPa SW 1.2mph /  1.9km/h   88% 0.00in /  0mm WeatherDisplay:10.37 W/m2 OVC
12:14 58.8 °F /  14.9 °C 54.9 °F /  12.7 °C 30.17in /  1021.6hPa Calm   1.0mph /  1.6km/h 87% 0.00in /  0mm WeatherDisplay:10.37 W/m2
12:17 58.8 °F /  14.9 °C 54.9 °F /  12.7 °C 30.17in /  1021.6hPa WSW 1.2mph /  1.9km/h 1.2mph /  1.9km/h 87% 0.00in /  0mm WeatherDisplay:10.37 W/m2 OVC
12:19 58.9 °F /  14.9 °C 55.0 °F /  12.8 °C 30.17in /  1021.6hPa Calm   1.0mph /  1.6km/h 87% 0.00in /  0mm WeatherDisplay:10.37 W/m2
12:24 59.0 °F /  15 °C 55.1 °F /  12.8 °C 30.17in /  1021.6hPa Calm   1.0mph /  1.6km/h 87% 0.00in /  0mm WeatherDisplay:10.37 W/m2
12:29 59.1 °F /  15.1 °C 55.2 °F /  12.9 °C 30.17in /  1021.6hPa Calm   2.0mph /  3.2km/h 87% 0.00in /  0mm WeatherDisplay:10.37 W/m2
12:30 59.1 °F /  15.1 °C 55.2 °F /  12.9 °C 30.17in /  1021.6hPa SE 2.3mph /  3.7km/h   87% 0.00in /  0mm WeatherDisplay:10.37 W/m2 OVC
12:34 59.1 °F /  15.1 °C 54.9 °F /  12.7 °C 30.16in /  1021.2hPa Calm   1.0mph /  1.6km/h 86% 0.00in /  0mm WeatherDisplay:10.37 W/m2
12:35 59.1 °F /  15.1 °C 54.9 °F /  12.7 °C 30.16in /  1021.2hPa South 2.3mph /  3.7km/h   86% 0.00in /  0mm WeatherDisplay:10.37 W/m2 OVC
12:39 59.3 °F /  15.2 °C 55.1 °F /  12.8 °C 30.16in /  1021.2hPa Calm   3.0mph /  4.8km/h 86% 0.00in /  0mm WeatherDisplay:10.37 W/m2
12:40 59.3 °F /  15.2 °C 55.1 °F /  12.8 °C 30.17in /  1021.6hPa SE 3.5mph /  5.6km/h 3.5mph /  5.6km/h 86% 0.00in /  0mm WeatherDisplay:10.37 W/m2 OVC
12:44 59.4 °F /  15.2 °C 55.2 °F /  12.9 °C 30.16in /  1021.2hPa Calm   1.0mph /  1.6km/h 86% 0.00in /  0mm WeatherDisplay:10.37 W/m2
12:45 59.5 °F /  15.3 °C 55.3 °F /  12.9 °C 30.16in /  1021.2hPa SSW 3.5mph /  5.6km/h   86% 0.00in /  0mm WeatherDisplay:10.37 W/m2 OVC
12:49 59.7 °F /  15.4 °C 55.2 °F /  12.9 °C 30.16in /  1021.2hPa Calm   1.0mph /  1.6km/h 85% 0.00in /  0mm WeatherDisplay:10.37 W/m2
12:50 59.7 °F /  15.4 °C 55.5 °F /  13.1 °C 30.16in /  1021.2hPa WSW 3.5mph /  5.6km/h 3.5mph /  5.6km/h 86% 0.00in /  0mm WeatherDisplay:10.37 W/m2 OVC
12:54 59.8 °F /  15.4 °C 55.0 °F /  12.8 °C 30.16in /  1021.2hPa Calm   1.0mph /  1.6km/h 84% 0.00in /  0mm WeatherDisplay:10.37 W/m2
12:59 59.9 °F /  15.5 °C 55.1 °F /  12.8 °C 30.16in /  1021.2hPa Calm     84% 0.00in /  0mm WeatherDisplay:10.37 W/m2
13:00 59.9 °F /  15.5 °C 55.1 °F /  12.8 °C 30.16in /  1021.2hPa NNE 1.2mph /  1.9km/h   84% 0.00in /  0mm WeatherDisplay:10.37 W/m2 OVC
13:04 60.2 °F /  15.7 °C 55.7 °F /  13.2 °C 30.16in /  1021.2hPa Calm     85% 0.00in /  0mm WeatherDisplay:10.37 W/m2
13:05 60.2 °F /  15.7 °C 55.7 °F /  13.2 °C 30.16in /  1021.2hPa NE 1.2mph /  1.9km/h   85% 0.00in /  0mm WeatherDisplay:10.37 W/m2 OVC
13:09 60.3 °F /  15.7 °C 55.4 °F /  13 °C 30.16in /  1021.2hPa Calm   1.0mph /  1.6km/h 84% 0.00in /  0mm WeatherDisplay:10.37 W/m2
13:10 60.3 °F /  15.7 °C 55.4 °F /  13 °C 30.16in /  1021.2hPa ENE 1.2mph /  1.9km/h   84% 0.00in /  0mm WeatherDisplay:10.37 W/m2 OVC
13:14 60.5 °F /  15.8 °C 55.6 °F /  13.1 °C 30.16in /  1021.2hPa Calm   1.0mph /  1.6km/h 84% 0.00in /  0mm WeatherDisplay:10.37 W/m2
13:15 60.5 °F /  15.8 °C 55.6 °F /  13.1 °C 30.16in /  1021.2hPa ESE 1.2mph /  1.9km/h   84% 0.00in /  0mm WeatherDisplay:10.37 W/m2 OVC
13:19 60.5 °F /  15.8 °C 55.0 °F /  12.8 °C 30.16in /  1021.2hPa Calm   1.0mph /  1.6km/h 82% 0.00in /  0mm WeatherDisplay:10.37 W/m2
13:21 60.5 °F /  15.8 °C 55.3 °F /  12.9 °C 30.16in /  1021.2hPa West 1.2mph /  1.9km/h 1.2mph /  1.9km/h 83% 0.00in /  0mm WeatherDisplay:10.37 W/m2 OVC
13:24 60.4 °F /  15.8 °C 54.9 °F /  12.7 °C 30.16in /  1021.2hPa ESE 1.0mph /  1.6km/h 1.0mph /  1.6km/h 82% 0.00in /  0mm WeatherDisplay:10.37 W/m2
13:26 60.4 °F /  15.8 °C 54.9 °F /  12.7 °C 30.16in /  1021.2hPa ENE 1.2mph /  1.9km/h 1.2mph /  1.9km/h 82% 0.00in /  0mm WeatherDisplay:10.37 W/m2 OVC
13:29 60.3 °F /  15.7 °C 55.1 °F /  12.8 °C 30.16in /  1021.2hPa Calm   1.0mph /  1.6km/h 83% 0.00in /  0mm WeatherDisplay:10.37 W/m2
13:31 60.3 °F /  15.7 °C 55.1 °F /  12.8 °C 30.15in /  1020.9hPa NNE 1.2mph /  1.9km/h   83% 0.00in /  0mm WeatherDisplay:10.37 W/m2 OVC
13:34 60.4 °F /  15.8 °C 55.2 °F /  12.9 °C 30.16in /  1021.2hPa Calm   1.0mph /  1.6km/h 83% 0.00in /  0mm WeatherDisplay:10.37 W/m2
13:36 60.4 °F /  15.8 °C 54.9 °F /  12.7 °C 30.16in /  1021.2hPa NNW 2.3mph /  3.7km/h 2.3mph /  3.7km/h 82% 0.00in /  0mm WeatherDisplay:10.37 W/m2 OVC
13:39 60.4 °F /  15.8 °C 54.9 °F /  12.7 °C 30.15in /  1020.9hPa Calm   2.0mph /  3.2km/h 82% 0.00in /  0mm WeatherDisplay:10.37 W/m2
13:41 60.4 °F /  15.8 °C 55.2 °F /  12.9 °C 30.15in /  1020.9hPa SE 2.3mph /  3.7km/h 2.3mph /  3.7km/h 83% 0.00in /  0mm WeatherDisplay:10.37 W/m2 OVC
13:44 60.5 °F /  15.8 °C 55.0 °F /  12.8 °C 30.15in /  1020.9hPa Calm   1.0mph /  1.6km/h 82% 0.00in /  0mm WeatherDisplay:10.37 W/m2
13:46 60.6 °F /  15.9 °C 55.1 °F /  12.8 °C 30.15in /  1020.9hPa ESE 2.3mph /  3.7km/h   82% 0.00in /  0mm WeatherDisplay:10.37 W/m2 OVC
13:49 60.9 °F /  16.1 °C 55.4 °F /  13 °C 30.15in /  1020.9hPa Calm   2.0mph /  3.2km/h 82% 0.00in /  0mm WeatherDisplay:10.37 W/m2
13:52 61.0 °F /  16.1 °C 55.5 °F /  13.1 °C 30.15in /  1020.9hPa ESE 2.3mph /  3.7km/h 2.3mph /  3.7km/h 82% 0.00in /  0mm WeatherDisplay:10.37 W/m2 OVC
13:54 61.2 °F /  16.2 °C 55.3 °F /  12.9 °C 30.15in /  1020.9hPa Calm   2.0mph /  3.2km/h 81% 0.00in /  0mm WeatherDisplay:10.37 W/m2
13:59 61.3 °F /  16.3 °C 55.1 °F /  12.8 °C 30.15in /  1020.9hPa ESE 1.0mph /  1.6km/h 1.0mph /  1.6km/h 80% 0.00in /  0mm WeatherDisplay:10.37 W/m2
14:02 61.3 °F /  16.3 °C 55.1 °F /  12.8 °C 30.15in /  1020.9hPa SE 2.3mph /  3.7km/h 2.3mph /  3.7km/h 80% 0.00in /  0mm WeatherDisplay:10.37 W/m2 CLR
14:04 61.1 °F /  16.2 °C 55.2 °F /  12.9 °C 30.15in /  1020.9hPa Calm   2.0mph /  3.2km/h 81% 0.00in /  0mm WeatherDisplay:10.37 W/m2
14:09 61.2 °F /  16.2 °C 55.3 °F /  12.9 °C 30.14in /  1020.5hPa Calm   1.0mph /  1.6km/h 81% 0.00in /  0mm WeatherDisplay:10.37 W/m2
14:12 61.3 °F /  16.3 °C 55.4 °F /  13 °C 30.15in /  1020.9hPa SW 2.3mph /  3.7km/h 2.3mph /  3.7km/h 81% 0.00in /  0mm WeatherDisplay:10.37 W/m2 BKN
14:14 61.5 °F /  16.4 °C 55.3 °F /  12.9 °C 30.15in /  1020.9hPa Calm   1.0mph /  1.6km/h 80% 0.00in /  0mm WeatherDisplay:10.37 W/m2
14:19 61.7 °F /  16.5 °C 55.5 °F /  13.1 °C 30.14in /  1020.5hPa Calm   1.0mph /  1.6km/h 80% 0.00in /  0mm WeatherDisplay:10.37 W/m2
14:22 61.8 °F /  16.6 °C 55.2 °F /  12.9 °C 30.14in /  1020.5hPa North 1.2mph /  1.9km/h   79% 0.00in /  0mm WeatherDisplay:10.37 W/m2 SCT
14:24 61.9 °F /  16.6 °C 55.3 °F /  12.9 °C 30.14in /  1020.5hPa Calm   1.0mph /  1.6km/h 79% 0.00in /  0mm WeatherDisplay:10.37 W/m2
14:29 62.0 °F /  16.7 °C 55.4 °F /  13 °C 30.14in /  1020.5hPa Calm   2.0mph /  3.2km/h 79% 0.00in /  0mm WeatherDisplay:10.37 W/m2
14:33 62.0 °F /  16.7 °C 55.1 °F /  12.8 °C 30.14in /  1020.5hPa North 2.3mph /  3.7km/h 2.3mph /  3.7km/h 78% 0.00in /  0mm WeatherDisplay:10.37 W/m2 SCT
14:34 62.1 °F /  16.7 °C 55.2 °F /  12.9 °C 30.14in /  1020.5hPa Calm   2.0mph /  3.2km/h 78% 0.00in /  0mm WeatherDisplay:10.37 W/m2
14:38 62.2 °F /  16.8 °C 55.3 °F /  12.9 °C 30.14in /  1020.5hPa East 2.3mph /  3.7km/h   78% 0.00in /  0mm WeatherDisplay:10.37 W/m2 SCT
14:39 62.3 °F /  16.8 °C 55.4 °F /  13 °C 30.14in /  1020.5hPa Calm   1.0mph /  1.6km/h 78% 0.00in /  0mm WeatherDisplay:10.37 W/m2
14:43 62.6 °F /  17 °C 56.0 °F /  13.3 °C 30.14in /  1020.5hPa East 2.3mph /  3.7km/h   79% 0.00in /  0mm WeatherDisplay:10.37 W/m2 SCT
14:44 62.9 °F /  17.2 °C 55.9 °F /  13.3 °C 30.14in /  1020.5hPa Calm     78% 0.00in /  0mm WeatherDisplay:10.37 W/m2
14:48 63.2 °F /  17.3 °C 55.9 °F /  13.3 °C 30.14in /  1020.5hPa East 1.2mph /  1.9km/h   77% 0.00in /  0mm WeatherDisplay:10.37 W/m2 SCT
14:49 63.4 °F /  17.4 °C 56.4 °F /  13.6 °C 30.14in /  1020.5hPa Calm     78% 0.00in /  0mm WeatherDisplay:10.37 W/m2
14:54 63.8 °F /  17.7 °C 55.7 °F /  13.2 °C 30.14in /  1020.5hPa East 1.0mph /  1.6km/h 2.0mph /  3.2km/h 75% 0.00in /  0mm WeatherDisplay:10.37 W/m2
14:59 63.9 °F /  17.7 °C 55.4 °F /  13 °C 30.14in /  1020.5hPa Calm   2.0mph /  3.2km/h 74% 0.00in /  0mm WeatherDisplay:10.37 W/m2
15:03 63.8 °F /  17.7 °C 55.7 °F /  13.2 °C 30.14in /  1020.5hPa South 2.3mph /  3.7km/h   75% 0.00in /  0mm WeatherDisplay:10.37 W/m2 SCT
15:04 63.8 °F /  17.7 °C 55.7 °F /  13.2 °C 30.14in /  1020.5hPa SSE 1.0mph /  1.6km/h 1.0mph /  1.6km/h 75% 0.00in /  0mm WeatherDisplay:10.37 W/m2
15:08 63.8 °F /  17.7 °C 55.7 °F /  13.2 °C 30.14in /  1020.5hPa SE 1.2mph /  1.9km/h 1.2mph /  1.9km/h 75% 0.00in /  0mm WeatherDisplay:10.37 W/m2 SCT
15:09 63.8 °F /  17.7 °C 55.7 °F /  13.2 °C 30.14in /  1020.5hPa Calm   1.0mph /  1.6km/h 75% 0.00in /  0mm WeatherDisplay:10.37 W/m2
15:13 63.7 °F /  17.6 °C 56.0 °F /  13.3 °C 30.13in /  1020.2hPa SE 1.2mph /  1.9km/h   76% 0.00in /  0mm WeatherDisplay:10.37 W/m2 SCT
15:14 63.8 °F /  17.7 °C 55.7 °F /  13.2 °C 30.14in /  1020.5hPa Calm     75% 0.00in /  0mm WeatherDisplay:10.37 W/m2
15:18 63.7 °F /  17.6 °C 55.6 °F /  13.1 °C 30.13in /  1020.2hPa SE 1.2mph /  1.9km/h 1.2mph /  1.9km/h 75% 0.00in /  0mm WeatherDisplay:10.37 W/m2 SCT
15:19 63.7 °F /  17.6 °C 55.6 °F /  13.1 °C 30.13in /  1020.2hPa Calm   1.0mph /  1.6km/h 75% 0.00in /  0mm WeatherDisplay:10.37 W/m2
15:24 63.7 °F /  17.6 °C 56.0 °F /  13.3 °C 30.13in /  1020.2hPa Calm     76% 0.00in /  0mm WeatherDisplay:10.37 W/m2
15:26 63.7 °F /  17.6 °C 56.0 °F /  13.3 °C 30.13in /  1020.2hPa ESE 1.2mph /  1.9km/h   76% 0.00in /  0mm WeatherDisplay:10.37 W/m2 SCT
15:29 63.7 °F /  17.6 °C 55.6 °F /  13.1 °C 30.13in /  1020.2hPa Calm     75% 0.00in /  0mm WeatherDisplay:10.37 W/m2
15:34 63.9 °F /  17.7 °C 56.2 °F /  13.4 °C 30.13in /  1020.2hPa Calm     76% 0.00in /  0mm WeatherDisplay:10.37 W/m2
15:36 63.9 °F /  17.7 °C 56.2 °F /  13.4 °C 30.13in /  1020.2hPa Calm     76% 0.00in /  0mm WeatherDisplay:10.37 W/m2 SCT
15:39 63.9 °F /  17.7 °C 55.4 °F /  13 °C 30.13in /  1020.2hPa ESE 1.0mph /  1.6km/h 1.0mph /  1.6km/h 74% 0.00in /  0mm WeatherDisplay:10.37 W/m2
15:41 63.9 °F /  17.7 °C 55.8 °F /  13.2 °C 30.13in /  1020.2hPa ESE 1.2mph /  1.9km/h   75% 0.00in /  0mm WeatherDisplay:10.37 W/m2 SCT
15:44 63.7 °F /  17.6 °C 55.6 °F /  13.1 °C 30.13in /  1020.2hPa Calm   1.0mph /  1.6km/h 75% 0.00in /  0mm WeatherDisplay:10.37 W/m2
15:46 63.7 °F /  17.6 °C 55.6 °F /  13.1 °C 30.13in /  1020.2hPa ESE 1.2mph /  1.9km/h 1.2mph /  1.9km/h 75% 0.00in /  0mm WeatherDisplay:10.37 W/m2 SCT
15:49 63.6 °F /  17.6 °C 55.5 °F /  13.1 °C 30.13in /  1020.2hPa Calm   1.0mph /  1.6km/h 75% 0.00in /  0mm WeatherDisplay:10.37 W/m2
15:51 63.6 °F /  17.6 °C 55.5 °F /  13.1 °C 30.13in /  1020.2hPa ESE 1.2mph /  1.9km/h   75% 0.00in /  0mm WeatherDisplay:10.37 W/m2 SCT
15:54 63.6 °F /  17.6 °C 55.5 °F /  13.1 °C 30.13in /  1020.2hPa Calm     75% 0.00in /  0mm WeatherDisplay:10.37 W/m2
15:59 63.5 °F /  17.5 °C 55.4 °F /  13 °C 30.13in /  1020.2hPa Calm   1.0mph /  1.6km/h 75% 0.00in /  0mm WeatherDisplay:10.37 W/m2
16:01 63.5 °F /  17.5 °C 55.4 °F /  13 °C 30.14in /  1020.5hPa ESE 1.2mph /  1.9km/h   75% 0.00in /  0mm WeatherDisplay:10.37 W/m2 SCT
16:04 63.5 °F /  17.5 °C 55.4 °F /  13 °C 30.14in /  1020.5hPa Calm     75% 0.00in /  0mm WeatherDisplay:10.37 W/m2
16:06 63.5 °F /  17.5 °C 55.4 °F /  13 °C 30.14in /  1020.5hPa ESE 1.2mph /  1.9km/h   75% 0.00in /  0mm WeatherDisplay:10.37 W/m2 SCT
16:09 63.5 °F /  17.5 °C 55.4 °F /  13 °C 30.13in /  1020.2hPa Calm   1.0mph /  1.6km/h 75% 0.00in /  0mm WeatherDisplay:10.37 W/m2
16:12 63.5 °F /  17.5 °C 55.4 °F /  13 °C 30.14in /  1020.5hPa SSE 1.2mph /  1.9km/h   75% 0.00in /  0mm WeatherDisplay:10.37 W/m2 SCT
16:14 63.5 °F /  17.5 °C 55.4 °F /  13 °C 30.13in /  1020.2hPa Calm   1.0mph /  1.6km/h 75% 0.00in /  0mm WeatherDisplay:10.37 W/m2
16:17 63.5 °F /  17.5 °C 55.4 °F /  13 °C 30.13in /  1020.2hPa SW 2.3mph /  3.7km/h 2.3mph /  3.7km/h 75% 0.00in /  0mm WeatherDisplay:10.37 W/m2 SCT
16:19 63.4 °F /  17.4 °C 55.7 °F /  13.2 °C 30.13in /  1020.2hPa Calm   2.0mph /  3.2km/h 76% 0.00in /  0mm WeatherDisplay:10.37 W/m2
16:22 63.2 °F /  17.3 °C 55.5 °F /  13.1 °C 30.13in /  1020.2hPa SW 2.3mph /  3.7km/h   76% 0.00in /  0mm WeatherDisplay:10.37 W/m2 SCT
16:24 63.1 °F /  17.3 °C 55.8 °F /  13.2 °C 30.13in /  1020.2hPa Calm     77% 0.00in /  0mm WeatherDisplay:10.37 W/m2
16:27 63.0 °F /  17.2 °C 55.7 °F /  13.2 °C 30.13in /  1020.2hPa SW 2.3mph /  3.7km/h 2.3mph /  3.7km/h 77% 0.00in /  0mm WeatherDisplay:10.37 W/m2 SCT
16:29 62.8 °F /  17.1 °C 55.8 °F /  13.2 °C 30.13in /  1020.2hPa Calm   1.0mph /  1.6km/h 78% 0.00in /  0mm WeatherDisplay:10.37 W/m2
16:34 62.6 °F /  17 °C 55.6 °F /  13.1 °C 30.14in /  1020.5hPa Calm     78% 0.00in /  0mm WeatherDisplay:10.37 W/m2
16:37 62.5 °F /  16.9 °C 55.5 °F /  13.1 °C 30.14in /  1020.5hPa SW 1.2mph /  1.9km/h   78% 0.00in /  0mm WeatherDisplay:10.37 W/m2 SCT
16:39 62.3 °F /  16.8 °C 55.4 °F /  13 °C 30.14in /  1020.5hPa Calm     78% 0.00in /  0mm WeatherDisplay:10.37 W/m2
16:42 62.2 °F /  16.8 °C 55.6 °F /  13.1 °C 30.14in /  1020.5hPa Calm     79% 0.00in /  0mm WeatherDisplay:10.37 W/m2 SCT
16:44 62.1 °F /  16.7 °C 55.5 °F /  13.1 °C 30.14in /  1020.5hPa Calm     79% 0.00in /  0mm WeatherDisplay:10.37 W/m2
16:49 61.9 °F /  16.6 °C 55.3 °F /  12.9 °C 30.14in /  1020.5hPa Calm   1.0mph /  1.6km/h 79% 0.00in /  0mm WeatherDisplay:10.37 W/m2
16:52 61.8 °F /  16.6 °C 55.2 °F /  12.9 °C 30.14in /  1020.5hPa Calm     79% 0.00in /  0mm WeatherDisplay:10.37 W/m2 SCT
16:54 61.7 °F /  16.5 °C 55.5 °F /  13.1 °C 30.14in /  1020.5hPa Calm     80% 0.00in /  0mm WeatherDisplay:10.37 W/m2
16:57 61.6 °F /  16.4 °C 55.4 °F /  13 °C 30.14in /  1020.5hPa Calm     80% 0.00in /  0mm WeatherDisplay:10.37 W/m2 SCT
16:59 61.4 °F /  16.3 °C 55.2 °F /  12.9 °C 30.14in /  1020.5hPa Calm   1.0mph /  1.6km/h 80% 0.00in /  0mm WeatherDisplay:10.37 W/m2
17:02 61.3 °F /  16.3 °C 55.1 °F /  12.8 °C 30.14in /  1020.5hPa SSE 1.2mph /  1.9km/h   80% 0.00in /  0mm WeatherDisplay:10.37 W/m2 BKN
17:04 61.2 °F /  16.2 °C 55.0 °F /  12.8 °C 30.14in /  1020.5hPa Calm   1.0mph /  1.6km/h 80% 0.00in /  0mm WeatherDisplay:10.37 W/m2
17:07 61.1 °F /  16.2 °C 54.9 °F /  12.7 °C 30.14in /  1020.5hPa ESE 1.2mph /  1.9km/h   80% 0.00in /  0mm WeatherDisplay:10.37 W/m2 BKN
17:09 61.0 °F /  16.1 °C 54.8 °F /  12.7 °C 30.14in /  1020.5hPa Calm     80% 0.00in /  0mm WeatherDisplay:10.37 W/m2
17:12 60.8 °F /  16 °C 54.6 °F /  12.6 °C 30.14in /  1020.5hPa Calm     80% 0.00in /  0mm WeatherDisplay:10.37 W/m2 BKN
17:14 60.7 °F /  15.9 °C 54.5 °F /  12.5 °C 30.14in /  1020.5hPa Calm     80% 0.00in /  0mm WeatherDisplay:10.37 W/m2
17:19 60.5 °F /  15.8 °C 54.3 °F /  12.4 °C 30.14in /  1020.5hPa Calm     80% 0.00in /  0mm WeatherDisplay:10.37 W/m2
17:23 60.3 °F /  15.7 °C 54.1 °F /  12.3 °C 30.14in /  1020.5hPa Calm     80% 0.00in /  0mm WeatherDisplay:10.37 W/m2 BKN
17:24 60.3 °F /  15.7 °C 54.1 °F /  12.3 °C 30.14in /  1020.5hPa Calm     80% 0.00in /  0mm WeatherDisplay:10.37 W/m2
17:28 60.1 °F /  15.6 °C 54.2 °F /  12.3 °C 30.14in /  1020.5hPa Calm     81% 0.00in /  0mm WeatherDisplay:10.37 W/m2 BKN
17:29 59.9 °F /  15.5 °C 53.7 °F /  12.1 °C 30.14in /  1020.5hPa Calm     80% 0.00in /  0mm WeatherDisplay:10.37 W/m2
17:34 59.6 °F /  15.3 °C 53.4 °F /  11.9 °C 30.14in /  1020.5hPa Calm     80% 0.00in /  0mm WeatherDisplay:10.37 W/m2
17:38 59.4 °F /  15.2 °C 53.6 °F /  12 °C 30.14in /  1020.5hPa Calm     81% 0.00in /  0mm WeatherDisplay:10.37 W/m2 BKN
17:39 59.3 °F /  15.2 °C 53.1 °F /  11.7 °C 30.14in /  1020.5hPa Calm     80% 0.00in /  0mm WeatherDisplay:10.37 W/m2
17:43 59.1 °F /  15.1 °C 53.3 °F /  11.8 °C 30.14in /  1020.5hPa Calm     81% 0.00in /  0mm WeatherDisplay:10.37 W/m2 BKN
17:44 59.0 °F /  15 °C 53.2 °F /  11.8 °C 30.14in /  1020.5hPa Calm     81% 0.00in /  0mm WeatherDisplay:10.37 W/m2
17:48 58.9 °F /  14.9 °C 53.1 °F /  11.7 °C 30.14in /  1020.5hPa Calm     81% 0.00in /  0mm WeatherDisplay:10.37 W/m2 BKN
17:49 58.8 °F /  14.9 °C 53.0 °F /  11.7 °C 30.14in /  1020.5hPa Calm     81% 0.00in /  0mm WeatherDisplay:10.37 W/m2
17:53 58.6 °F /  14.8 °C 52.8 °F /  11.6 °C 30.14in /  1020.5hPa Calm     81% 0.00in /  0mm WeatherDisplay:10.37 W/m2 BKN
17:54 58.5 °F /  14.7 °C 52.7 °F /  11.5 °C 30.14in /  1020.5hPa Calm     81% 0.00in /  0mm WeatherDisplay:10.37 W/m2
17:58 58.3 °F /  14.6 °C 52.8 °F /  11.6 °C 30.15in /  1020.9hPa Calm     82% 0.00in /  0mm WeatherDisplay:10.37 W/m2 BKN
17:59 58.2 °F /  14.6 °C 52.7 °F /  11.5 °C 30.14in /  1020.5hPa Calm     82% 0.00in /  0mm WeatherDisplay:10.37 W/m2
18:08 57.8 °F /  14.3 °C 52.7 °F /  11.5 °C 30.15in /  1020.9hPa Calm     83% 0.00in /  0mm WeatherDisplay:10.37 W/m2 BKN
18:09 57.8 °F /  14.3 °C 52.7 °F /  11.5 °C 30.15in /  1020.9hPa Calm     83% 0.00in /  0mm WeatherDisplay:10.37 W/m2
18:13 57.7 °F /  14.3 °C 52.6 °F /  11.4 °C 30.15in /  1020.9hPa Calm     83% 0.00in /  0mm WeatherDisplay:10.37 W/m2 BKN
18:18 57.4 °F /  14.1 °C 52.3 °F /  11.3 °C 30.15in /  1020.9hPa Calm     83% 0.00in /  0mm WeatherDisplay:10.37 W/m2 BKN
18:19 57.4 °F /  14.1 °C 52.3 °F /  11.3 °C 30.15in /  1020.9hPa Calm     83% 0.00in /  0mm WeatherDisplay:10.37 W/m2
18:23 57.1 °F /  13.9 °C 52.0 °F /  11.1 °C 30.15in /  1020.9hPa Calm     83% 0.00in /  0mm WeatherDisplay:10.37 W/m2 BKN
18:29 56.7 °F /  13.7 °C 51.9 °F /  11.1 °C 30.15in /  1020.9hPa Calm     84% 0.00in /  0mm WeatherDisplay:10.37 W/m2 BKN
18:34 56.5 °F /  13.6 °C 52.0 °F /  11.1 °C 30.15in /  1020.9hPa Calm     85% 0.00in /  0mm WeatherDisplay:10.37 W/m2 BKN
18:39 56.5 °F /  13.6 °C 52.4 °F /  11.3 °C 30.16in /  1021.2hPa Calm     86% 0.00in /  0mm WeatherDisplay:10.37 W/m2 BKN
18:44 56.5 °F /  13.6 °C 52.4 °F /  11.3 °C 30.16in /  1021.2hPa Calm     86% 0.00in /  0mm WeatherDisplay:10.37 W/m2 BKN
18:49 56.3 °F /  13.5 °C 52.2 °F /  11.2 °C 30.16in /  1021.2hPa Calm     86% 0.00in /  0mm WeatherDisplay:10.37 W/m2 BKN
18:54 56.0 °F /  13.3 °C 51.9 °F /  11.1 °C 30.16in /  1021.2hPa Calm     86% 0.00in /  0mm WeatherDisplay:10.37 W/m2
18:59 55.8 °F /  13.2 °C 51.7 °F /  10.9 °C 30.16in /  1021.2hPa Calm     86% 0.00in /  0mm WeatherDisplay:10.37 W/m2 BKN
19:04 55.6 °F /  13.1 °C 51.8 °F /  11 °C 30.16in /  1021.2hPa Calm     87% 0.00in /  0mm WeatherDisplay:10.37 W/m2 BKN
19:09 55.4 °F /  13 °C 51.9 °F /  11.1 °C 30.16in /  1021.2hPa Calm     88% 0.00in /  0mm WeatherDisplay:10.37 W/m2 BKN
19:19 54.9 °F /  12.7 °C 51.4 °F /  10.8 °C 30.16in /  1021.2hPa Calm     88% 0.00in /  0mm WeatherDisplay:10.37 W/m2
19:24 54.7 °F /  12.6 °C 51.2 °F /  10.7 °C 30.16in /  1021.2hPa Calm     88% 0.00in /  0mm WeatherDisplay:10.37 W/m2 BKN
19:29 54.5 °F /  12.5 °C 51.3 °F /  10.7 °C 30.17in /  1021.6hPa Calm     89% 0.00in /  0mm WeatherDisplay:10.37 W/m2
19:34 54.3 °F /  12.4 °C 51.1 °F /  10.6 °C 30.17in /  1021.6hPa Calm     89% 0.00in /  0mm WeatherDisplay:10.37 W/m2 BKN
19:39 54.1 °F /  12.3 °C 50.9 °F /  10.5 °C 30.17in /  1021.6hPa Calm     89% 0.00in /  0mm WeatherDisplay:10.37 W/m2
19:40 54.2 °F /  12.3 °C 51.0 °F /  10.6 °C 30.17in /  1021.6hPa Calm     89% 0.00in /  0mm WeatherDisplay:10.37 W/m2 BKN
19:44 53.9 °F /  12.2 °C 50.7 °F /  10.4 °C 30.17in /  1021.6hPa Calm     89% 0.00in /  0mm WeatherDisplay:10.37 W/m2
19:49 53.7 °F /  12.1 °C 50.8 °F /  10.4 °C 30.17in /  1021.6hPa Calm     90% 0.00in /  0mm WeatherDisplay:10.37 W/m2
19:54 53.6 °F /  12 °C 50.7 °F /  10.4 °C 30.17in /  1021.6hPa Calm     90% 0.00in /  0mm WeatherDisplay:10.37 W/m2
19:55 53.6 °F /  12 °C 50.7 °F /  10.4 °C 30.17in /  1021.6hPa Calm     90% 0.00in /  0mm WeatherDisplay:10.37 W/m2 BKN
19:59 53.5 °F /  11.9 °C 50.6 °F /  10.3 °C 30.17in /  1021.6hPa Calm     90% 0.00in /  0mm WeatherDisplay:10.37 W/m2
20:00 53.5 °F /  11.9 °C 50.6 °F /  10.3 °C 30.17in /  1021.6hPa Calm     90% 0.00in /  0mm WeatherDisplay:10.37 W/m2 BKN
20:05 53.3 °F /  11.8 °C 50.4 °F /  10.2 °C 30.17in /  1021.6hPa Calm     90% 0.00in /  0mm WeatherDisplay:10.37 W/m2 BKN
20:09 53.2 °F /  11.8 °C 50.3 °F /  10.2 °C 30.17in /  1021.6hPa Calm     90% 0.00in /  0mm WeatherDisplay:10.37 W/m2
20:14 52.9 °F /  11.6 °C 50.0 °F /  10 °C 30.17in /  1021.6hPa Calm     90% 0.00in /  0mm WeatherDisplay:10.37 W/m2
20:19 52.7 °F /  11.5 °C 49.8 °F /  9.9 °C 30.17in /  1021.6hPa Calm     90% 0.00in /  0mm WeatherDisplay:10.37 W/m2
20:24 52.6 °F /  11.4 °C 50.0 °F /  10 °C 30.18in /  1021.9hPa Calm     91% 0.00in /  0mm WeatherDisplay:10.37 W/m2
20:25 52.6 °F /  11.4 °C 50.0 °F /  10 °C 30.17in /  1021.6hPa Calm     91% 0.00in /  0mm WeatherDisplay:10.37 W/m2 BKN
20:29 52.5 °F /  11.4 °C 49.9 °F /  9.9 °C 30.18in /  1021.9hPa Calm     91% 0.00in /  0mm WeatherDisplay:10.37 W/m2
20:30 52.4 °F /  11.3 °C 49.8 °F /  9.9 °C 30.17in /  1021.6hPa Calm     91% 0.00in /  0mm WeatherDisplay:10.37 W/m2 BKN
20:35 52.4 °F /  11.3 °C 49.8 °F /  9.9 °C 30.18in /  1021.9hPa Calm     91% 0.00in /  0mm WeatherDisplay:10.37 W/m2 BKN
20:39 52.4 °F /  11.3 °C 49.8 °F /  9.9 °C 30.18in /  1021.9hPa Calm     91% 0.00in /  0mm WeatherDisplay:10.37 W/m2
20:40 52.4 °F /  11.3 °C 49.8 °F /  9.9 °C 30.18in /  1021.9hPa Calm     91% 0.00in /  0mm WeatherDisplay:10.37 W/m2 BKN
20:44 52.3 °F /  11.3 °C 49.8 °F /  9.9 °C 30.18in /  1021.9hPa Calm     91% 0.00in /  0mm WeatherDisplay:10.37 W/m2
20:46 52.3 °F /  11.3 °C 49.8 °F /  9.9 °C 30.18in /  1021.9hPa Calm     91% 0.00in /  0mm WeatherDisplay:10.37 W/m2 BKN
20:49 52.4 °F /  11.3 °C 50.1 °F /  10.1 °C 30.18in /  1021.9hPa Calm     92% 0.00in /  0mm WeatherDisplay:10.37 W/m2
20:51 52.4 °F /  11.3 °C 50.1 °F /  10.1 °C 30.18in /  1021.9hPa Calm     92% 0.00in /  0mm WeatherDisplay:10.37 W/m2 BKN
20:54 52.4 °F /  11.3 °C 50.1 °F /  10.1 °C 30.18in /  1021.9hPa Calm     92% 0.00in /  0mm WeatherDisplay:10.37 W/m2
20:56 52.4 °F /  11.3 °C 50.1 °F /  10.1 °C 30.18in /  1021.9hPa Calm     92% 0.00in /  0mm WeatherDisplay:10.37 W/m2 BKN
20:59 52.2 °F /  11.2 °C 49.7 °F /  9.8 °C 30.18in /  1021.9hPa Calm     91% 0.00in /  0mm WeatherDisplay:10.37 W/m2
21:04 52.1 °F /  11.2 °C 49.8 °F /  9.9 °C 30.18in /  1021.9hPa Calm     92% 0.00in /  0mm WeatherDisplay:10.37 W/m2
21:09 51.9 °F /  11.1 °C 49.4 °F /  9.7 °C 30.18in /  1021.9hPa Calm     91% 0.00in /  0mm WeatherDisplay:10.37 W/m2
21:14 51.8 °F /  11 °C 49.5 °F /  9.7 °C 30.17in /  1021.6hPa Calm     92% 0.00in /  0mm WeatherDisplay:10.37 W/m2
21:16 51.8 °F /  11 °C 49.5 °F /  9.7 °C 30.17in /  1021.6hPa Calm     92% 0.00in /  0mm WeatherDisplay:10.37 W/m2 SCT
21:19 51.7 °F /  10.9 °C 49.5 °F /  9.7 °C 30.17in /  1021.6hPa Calm     92% 0.00in /  0mm WeatherDisplay:10.37 W/m2
21:21 51.7 °F /  10.9 °C 49.5 °F /  9.7 °C 30.17in /  1021.6hPa Calm     92% 0.00in /  0mm WeatherDisplay:10.37 W/m2 SCT
21:29 51.5 °F /  10.8 °C 49.3 °F /  9.6 °C 30.17in /  1021.6hPa Calm     92% 0.00in /  0mm WeatherDisplay:10.37 W/m2
21:34 51.5 °F /  10.8 °C 49.3 °F /  9.6 °C 30.18in /  1021.9hPa Calm     92% 0.00in /  0mm WeatherDisplay:10.37 W/m2
21:36 51.4 °F /  10.8 °C 49.2 °F /  9.6 °C 30.18in /  1021.9hPa Calm     92% 0.00in /  0mm WeatherDisplay:10.37 W/m2 SCT
21:39 51.4 °F /  10.8 °C 49.2 °F /  9.6 °C 30.18in /  1021.9hPa Calm     92% 0.00in /  0mm WeatherDisplay:10.37 W/m2
21:41 51.4 °F /  10.8 °C 49.2 °F /  9.6 °C 30.18in /  1021.9hPa Calm     92% 0.00in /  0mm WeatherDisplay:10.37 W/m2 SCT
21:44 51.5 °F /  10.8 °C 49.3 °F /  9.6 °C 30.18in /  1021.9hPa Calm     92% 0.00in /  0mm WeatherDisplay:10.37 W/m2
21:49 51.4 °F /  10.8 °C 49.2 °F /  9.6 °C 30.17in /  1021.6hPa Calm     92% 0.00in /  0mm WeatherDisplay:10.37 W/m2
21:54 51.3 °F /  10.7 °C 49.1 °F /  9.5 °C 30.18in /  1021.9hPa Calm     92% 0.00in /  0mm WeatherDisplay:10.37 W/m2
21:57 51.3 °F /  10.7 °C 49.1 °F /  9.5 °C 30.18in /  1021.9hPa Calm     92% 0.00in /  0mm WeatherDisplay:10.37 W/m2 SCT
21:59 51.2 °F /  10.7 °C 49.0 °F /  9.4 °C 30.18in /  1021.9hPa Calm     92% 0.00in /  0mm WeatherDisplay:10.37 W/m2
22:02 51.2 °F /  10.7 °C 49.0 °F /  9.4 °C 30.18in /  1021.9hPa Calm     92% 0.00in /  0mm WeatherDisplay:10.37 W/m2 SCT
22:04 51.0 °F /  10.6 °C 48.8 °F /  9.3 °C 30.18in /  1021.9hPa Calm     92% 0.00in /  0mm WeatherDisplay:10.37 W/m2
22:07 51.0 °F /  10.6 °C 48.8 °F /  9.3 °C 30.18in /  1021.9hPa Calm     92% 0.00in /  0mm WeatherDisplay:10.37 W/m2 SCT
22:09 51.1 °F /  10.6 °C 48.9 °F /  9.4 °C 30.18in /  1021.9hPa Calm     92% 0.00in /  0mm WeatherDisplay:10.37 W/m2
22:13 51.1 °F /  10.6 °C 49.1 °F /  9.5 °C 30.18in /  1021.9hPa Calm     93% 0.00in /  0mm WeatherDisplay:10.37 W/m2 FEW
22:14 51.1 °F /  10.6 °C 49.1 °F /  9.5 °C 30.18in /  1021.9hPa Calm     93% 0.00in /  0mm WeatherDisplay:10.37 W/m2
22:19 51.0 °F /  10.6 °C 48.8 °F /  9.3 °C 30.18in /  1021.9hPa Calm     92% 0.00in /  0mm WeatherDisplay:10.37 W/m2
22:22 51.0 °F /  10.6 °C 48.8 °F /  9.3 °C 30.18in /  1021.9hPa Calm     92% 0.00in /  0mm WeatherDisplay:10.37 W/m2 FEW
22:24 51.0 °F /  10.6 °C 49.0 °F /  9.4 °C 30.18in /  1021.9hPa Calm     93% 0.00in /  0mm WeatherDisplay:10.37 W/m2
22:27 51.1 °F /  10.6 °C 49.1 °F /  9.5 °C 30.18in /  1021.9hPa Calm     93% 0.00in /  0mm WeatherDisplay:10.37 W/m2 FEW
22:29 51.2 °F /  10.7 °C 49.2 °F /  9.6 °C 30.18in /  1021.9hPa Calm     93% 0.00in /  0mm WeatherDisplay:10.37 W/m2
22:38 51.2 °F /  10.7 °C 49.2 °F /  9.6 °C 30.18in /  1021.9hPa Calm     93% 0.00in /  0mm WeatherDisplay:10.37 W/m2 FEW
22:39 51.1 °F /  10.6 °C 49.1 °F /  9.5 °C 30.18in /  1021.9hPa Calm     93% 0.00in /  0mm WeatherDisplay:10.37 W/m2
22:42 51.0 °F /  10.6 °C 49.0 °F /  9.4 °C 30.18in /  1021.9hPa Calm     93% 0.00in /  0mm WeatherDisplay:10.37 W/m2 FEW
22:44 50.9 °F /  10.5 °C 48.9 °F /  9.4 °C 30.18in /  1021.9hPa Calm     93% 0.00in /  0mm WeatherDisplay:10.37 W/m2
22:49 50.8 °F /  10.4 °C 48.6 °F /  9.2 °C 30.18in /  1021.9hPa Calm     92% 0.00in /  0mm WeatherDisplay:10.37 W/m2 FEW
22:54 50.7 °F /  10.4 °C 48.7 °F /  9.3 °C 30.18in /  1021.9hPa Calm     93% 0.00in /  0mm WeatherDisplay:10.37 W/m2
22:57 50.8 °F /  10.4 °C 48.8 °F /  9.3 °C 30.18in /  1021.9hPa Calm     93% 0.00in /  0mm WeatherDisplay:10.37 W/m2 FEW
22:59 50.8 °F /  10.4 °C 48.8 °F /  9.3 °C 30.18in /  1021.9hPa Calm     93% 0.00in /  0mm WeatherDisplay:10.37 W/m2
23:02 50.8 °F /  10.4 °C 48.8 °F /  9.3 °C 30.18in /  1021.9hPa Calm     93% 0.00in /  0mm WeatherDisplay:10.37 W/m2 FEW
23:07 50.6 °F /  10.3 °C 48.7 °F /  9.3 °C 30.18in /  1021.9hPa Calm     93% 0.00in /  0mm WeatherDisplay:10.37 W/m2 FEW
23:09 50.5 °F /  10.3 °C 48.6 °F /  9.2 °C 30.18in /  1021.9hPa Calm     93% 0.00in /  0mm WeatherDisplay:10.37 W/m2
23:12 50.4 °F /  10.2 °C 48.5 °F /  9.2 °C 30.18in /  1021.9hPa Calm     93% 0.00in /  0mm WeatherDisplay:10.37 W/m2 FEW
23:14 50.3 °F /  10.2 °C 48.4 °F /  9.1 °C 30.18in /  1021.9hPa Calm     93% 0.00in /  0mm WeatherDisplay:10.37 W/m2
23:17 50.2 °F /  10.1 °C 48.3 °F /  9.1 °C 30.18in /  1021.9hPa Calm     93% 0.00in /  0mm WeatherDisplay:10.37 W/m2 FEW
23:19 50.1 °F /  10.1 °C 48.2 °F /  9 °C 30.18in /  1021.9hPa Calm     93% 0.00in /  0mm WeatherDisplay:10.37 W/m2
23:22 50.0 °F /  10 °C 48.1 °F /  8.9 °C 30.18in /  1021.9hPa Calm     93% 0.00in /  0mm WeatherDisplay:10.37 W/m2 FEW
23:27 49.9 °F /  9.9 °C 48.0 °F /  8.9 °C 30.18in /  1021.9hPa Calm     93% 0.00in /  0mm WeatherDisplay:10.37 W/m2 FEW
23:29 49.9 °F /  9.9 °C 48.0 °F /  8.9 °C 30.19in /  1022.2hPa Calm     93% 0.00in /  0mm WeatherDisplay:10.37 W/m2
23:32 49.8 °F /  9.9 °C 47.9 °F /  8.8 °C 30.19in /  1022.2hPa Calm     93% 0.00in /  0mm WeatherDisplay:10.37 W/m2 FEW
23:37 49.7 °F /  9.8 °C 47.8 °F /  8.8 °C 30.19in /  1022.2hPa Calm     93% 0.00in /  0mm WeatherDisplay:10.37 W/m2 FEW
23:39 49.6 °F /  9.8 °C 47.7 °F /  8.7 °C 30.19in /  1022.2hPa Calm     93% 0.00in /  0mm WeatherDisplay:10.37 W/m2
23:42 49.5 °F /  9.7 °C 47.6 °F /  8.7 °C 30.19in /  1022.2hPa Calm     93% 0.00in /  0mm WeatherDisplay:10.37 W/m2 FEW
23:44 49.4 °F /  9.7 °C 47.5 °F /  8.6 °C 30.19in /  1022.2hPa Calm     93% 0.00in /  0mm WeatherDisplay:10.37 W/m2
23:48 49.4 °F /  9.7 °C 47.5 °F /  8.6 °C 30.19in /  1022.2hPa Calm     93% 0.00in /  0mm WeatherDisplay:10.37 W/m2 FEW
23:49 49.3 °F /  9.6 °C 47.4 °F /  8.6 °C 30.19in /  1022.2hPa Calm     93% 0.00in /  0mm WeatherDisplay:10.37 W/m2
23:53 49.3 °F /  9.6 °C 47.4 °F /  8.6 °C 30.19in /  1022.2hPa Calm     93% 0.00in /  0mm WeatherDisplay:10.37 W/m2 FEW
23:58 49.2 °F /  9.6 °C 47.3 °F /  8.5 °C 30.18in /  1021.9hPa Calm     93% 0.00in /  0mm WeatherDisplay:10.37 W/m2 FEW
23:59 49.2 °F /  9.6 °C 47.3 °F /  8.5 °C 30.18in /  1021.9hPa Calm     93% 0.00in /  0mm WeatherDisplay:10.37 W/m2
Piedmont Bend
Compliments of Weather Underground - 4 mb